sensor_id;sensor_type;location;lat;lon;timestamp;pressure;altitude;pressure_sealevel;temperature;humidity
85458;BME280;75848;42.706;23.292;2024-03-06T00:02:18;94862.41;;;5.88;71.18
85458;BME280;75848;42.706;23.292;2024-03-06T00:04:49;94859.22;;;6.00;70.40
85458;BME280;75848;42.706;23.292;2024-03-06T00:07:43;94865.09;;;5.88;71.18
85458;BME280;75848;42.706;23.292;2024-03-06T00:10:11;94860.16;;;5.72;71.87
85458;BME280;75848;42.706;23.292;2024-03-06T00:12:42;94864.81;;;5.68;72.34
85458;BME280;75848;42.706;23.292;2024-03-06T00:15:12;94841.22;;;5.25;73.04
85458;BME280;75848;42.706;23.292;2024-03-06T00:17:40;94838.44;;;5.39;72.63
85458;BME280;75848;42.706;23.292;2024-03-06T00:23:24;94855.66;;;5.55;72.35
85458;BME280;75848;42.706;23.292;2024-03-06T00:25:56;94862.66;;;5.39;72.90
85458;BME280;75848;42.706;23.292;2024-03-06T00:28:49;94865.34;;;5.39;72.69
85458;BME280;75848;42.706;23.292;2024-03-06T00:31:20;94866.03;;;5.53;72.38
85458;BME280;75848;42.706;23.292;2024-03-06T00:33:54;94840.41;;;5.31;72.92
85458;BME280;75848;42.706;23.292;2024-03-06T00:36:23;94831.16;;;5.36;72.41
85458;BME280;75848;42.706;23.292;2024-03-06T00:39:14;94841.59;;;5.23;73.06
85458;BME280;75848;42.706;23.292;2024-03-06T00:41:49;94836.19;;;5.27;72.68
85458;BME280;75848;42.706;23.292;2024-03-06T00:44:22;94848.09;;;5.29;73.30
85458;BME280;75848;42.706;23.292;2024-03-06T00:46:54;94856.13;;;5.36;73.37
85458;BME280;75848;42.706;23.292;2024-03-06T00:49:32;94860.69;;;5.46;73.00
85458;BME280;75848;42.706;23.292;2024-03-06T00:52:18;94848.84;;;5.33;73.31
85458;BME280;75848;42.706;23.292;2024-03-06T00:54:44;94844.63;;;5.29;73.38
85458;BME280;75848;42.706;23.292;2024-03-06T00:57:16;94859.22;;;5.35;73.06
85458;BME280;75848;42.706;23.292;2024-03-06T00:59:46;94867.69;;;5.30;73.70
85458;BME280;75848;42.706;23.292;2024-03-06T01:02:19;94842.00;;;5.18;73.66
85458;BME280;75848;42.706;23.292;2024-03-06T01:04:51;94844.28;;;5.23;72.98
85458;BME280;75848;42.706;23.292;2024-03-06T01:07:20;94861.56;;;5.26;73.61
85458;BME280;75848;42.706;23.292;2024-03-06T01:09:49;94871.94;;;5.27;73.61
85458;BME280;75848;42.706;23.292;2024-03-06T01:12:16;94858.91;;;5.15;73.22
85458;BME280;75848;42.706;23.292;2024-03-06T01:14:47;94832.50;;;4.93;74.39
85458;BME280;75848;42.706;23.292;2024-03-06T01:17:14;94839.75;;;5.03;74.75
85458;BME280;75848;42.706;23.292;2024-03-06T01:19:58;94834.41;;;4.96;74.52
85458;BME280;75848;42.706;23.292;2024-03-06T01:22:34;94841.28;;;5.04;74.72
85458;BME280;75848;42.706;23.292;2024-03-06T01:25:02;94840.91;;;5.05;73.71
85458;BME280;75848;42.706;23.292;2024-03-06T01:27:30;94845.56;;;4.87;74.88
85458;BME280;75848;42.706;23.292;2024-03-06T01:30:04;94849.44;;;4.76;75.67
85458;BME280;75848;42.706;23.292;2024-03-06T01:32:42;94830.25;;;4.81;75.83
85458;BME280;75848;42.706;23.292;2024-03-06T01:35:16;94849.75;;;5.02;75.72
85458;BME280;75848;42.706;23.292;2024-03-06T01:37:58;94850.88;;;5.05;74.95
85458;BME280;75848;42.706;23.292;2024-03-06T01:40:43;94833.28;;;4.90;74.45
85458;BME280;75848;42.706;23.292;2024-03-06T01:43:26;94835.97;;;4.90;74.60
85458;BME280;75848;42.706;23.292;2024-03-06T01:45:51;94862.38;;;5.12;74.56
85458;BME280;75848;42.706;23.292;2024-03-06T01:48:41;94825.16;;;5.04;74.48
85458;BME280;75848;42.706;23.292;2024-03-06T01:51:11;94829.00;;;5.03;74.56
85458;BME280;75848;42.706;23.292;2024-03-06T01:53:52;94840.88;;;5.12;73.64
85458;BME280;75848;42.706;23.292;2024-03-06T01:56:19;94845.88;;;5.10;73.50
85458;BME280;75848;42.706;23.292;2024-03-06T01:58:47;94867.69;;;5.30;74.02
85458;BME280;75848;42.706;23.292;2024-03-06T02:01:16;94840.09;;;5.15;74.15
85458;BME280;75848;42.706;23.292;2024-03-06T02:03:49;94865.81;;;5.23;74.14
85458;BME280;75848;42.706;23.292;2024-03-06T02:06:18;94874.75;;;4.92;75.49
85458;BME280;75848;42.706;23.292;2024-03-06T02:08:46;94856.72;;;4.86;75.16
85458;BME280;75848;42.706;23.292;2024-03-06T02:11:16;94841.00;;;4.77;75.79
85458;BME280;75848;42.706;23.292;2024-03-06T02:13:51;94860.16;;;4.86;76.17
85458;BME280;75848;42.706;23.292;2024-03-06T02:16:20;94864.09;;;4.57;76.87
85458;BME280;75848;42.706;23.292;2024-03-06T02:18:56;94864.41;;;4.80;76.03
85458;BME280;75848;42.706;23.292;2024-03-06T02:21:53;94887.78;;;5.04;74.58
85458;BME280;75848;42.706;23.292;2024-03-06T02:24:44;94890.84;;;4.99;75.14
85458;BME280;75848;42.706;23.292;2024-03-06T02:27:20;94855.22;;;4.78;75.09
85458;BME280;75848;42.706;23.292;2024-03-06T02:30:11;94891.59;;;5.07;73.65
85458;BME280;75848;42.706;23.292;2024-03-06T02:32:41;94887.38;;;4.99;73.76
85458;BME280;75848;42.706;23.292;2024-03-06T02:35:31;94903.13;;;5.04;73.44
85458;BME280;75848;42.706;23.292;2024-03-06T02:38:07;94887.84;;;4.87;73.50
85458;BME280;75848;42.706;23.292;2024-03-06T02:41:02;94886.28;;;4.79;73.60
85458;BME280;75848;42.706;23.292;2024-03-06T02:43:34;94906.63;;;4.80;73.02
85458;BME280;75848;42.706;23.292;2024-03-06T02:46:00;94901.28;;;4.73;74.17
85458;BME280;75848;42.706;23.292;2024-03-06T02:48:33;94874.84;;;4.57;74.02
85458;BME280;75848;42.706;23.292;2024-03-06T02:51:11;94871.78;;;4.37;74.54
85458;BME280;75848;42.706;23.292;2024-03-06T02:53:51;94894.03;;;4.27;76.00
85458;BME280;75848;42.706;23.292;2024-03-06T02:56:31;94889.44;;;4.10;75.65
85458;BME280;75848;42.706;23.292;2024-03-06T03:01:58;94905.56;;;4.10;76.20
85458;BME280;75848;42.706;23.292;2024-03-06T03:09:34;94906.28;;;4.00;76.26
85458;BME280;75848;42.706;23.292;2024-03-06T03:12:03;94887.88;;;3.92;75.50
85458;BME280;75848;42.706;23.292;2024-03-06T03:14:34;94910.13;;;3.89;76.20
85458;BME280;75848;42.706;23.292;2024-03-06T03:17:07;94867.94;;;3.82;75.96
85458;BME280;75848;42.706;23.292;2024-03-06T03:19:42;94882.16;;;3.97;75.23
85458;BME280;75848;42.706;23.292;2024-03-06T03:22:14;94897.84;;;3.95;75.66
85458;BME280;75848;42.706;23.292;2024-03-06T03:24:43;94889.03;;;3.87;76.08
85458;BME280;75848;42.706;23.292;2024-03-06T03:27:10;94908.63;;;4.16;74.92
85458;BME280;75848;42.706;23.292;2024-03-06T03:29:38;94889.06;;;4.08;75.03
85458;BME280;75848;42.706;23.292;2024-03-06T03:32:10;94914.75;;;4.20;75.53
85458;BME280;75848;42.706;23.292;2024-03-06T03:34:42;94891.75;;;4.01;74.39
85458;BME280;75848;42.706;23.292;2024-03-06T03:37:13;94900.94;;;3.97;74.94
85458;BME280;75848;42.706;23.292;2024-03-06T03:39:49;94915.13;;;4.15;74.76
85458;BME280;75848;42.706;23.292;2024-03-06T03:42:23;94879.47;;;3.97;74.35
85458;BME280;75848;42.706;23.292;2024-03-06T03:44:54;94919.75;;;4.14;74.37
85458;BME280;75848;42.706;23.292;2024-03-06T03:47:38;94902.09;;;4.10;74.25
85458;BME280;75848;42.706;23.292;2024-03-06T03:50:06;94917.81;;;4.11;73.97
85458;BME280;75848;42.706;23.292;2024-03-06T03:52:42;94895.56;;;3.97;74.56
85458;BME280;75848;42.706;23.292;2024-03-06T03:55:15;94909.38;;;3.88;75.20
85458;BME280;75848;42.706;23.292;2024-03-06T03:58:06;94925.81;;;3.69;76.08
85458;BME280;75848;42.706;23.292;2024-03-06T04:00:45;94896.56;;;3.36;77.25
85458;BME280;75848;42.706;23.292;2024-03-06T04:03:27;94888.53;;;3.36;76.74
85458;BME280;75848;42.706;23.292;2024-03-06T04:06:00;94897.00;;;3.49;76.69
85458;BME280;75848;42.706;23.292;2024-03-06T04:08:39;94917.69;;;3.48;77.40
85458;BME280;75848;42.706;23.292;2024-03-06T04:11:11;94931.50;;;3.61;76.90
85458;BME280;75848;42.706;23.292;2024-03-06T04:13:41;94926.53;;;3.59;76.71
85458;BME280;75848;42.706;23.292;2024-03-06T04:16:17;94929.28;;;3.80;75.21
85458;BME280;75848;42.706;23.292;2024-03-06T04:19:05;94925.03;;;3.69;75.09
85458;BME280;75848;42.706;23.292;2024-03-06T04:21:47;94939.22;;;3.80;74.67
85458;BME280;75848;42.706;23.292;2024-03-06T04:24:34;94926.56;;;3.70;74.86
85458;BME280;75848;42.706;23.292;2024-03-06T04:27:05;94928.09;;;3.60;74.70
85458;BME280;75848;42.706;23.292;2024-03-06T04:29:44;94931.13;;;3.55;74.38
85458;BME280;75848;42.706;23.292;2024-03-06T04:32:51;94956.88;;;3.77;74.18
85458;BME280;75848;42.706;23.292;2024-03-06T04:35:43;94946.13;;;3.70;75.01
85458;BME280;75848;42.706;23.292;2024-03-06T05:01:18;94962.59;;;3.69;76.46
85458;BME280;75848;42.706;23.292;2024-03-06T05:03:45;94954.16;;;3.67;75.65
85458;BME280;75848;42.706;23.292;2024-03-06T05:06:16;94973.34;;;3.72;76.37
85458;BME280;75848;42.706;23.292;2024-03-06T05:08:47;94963.78;;;3.82;75.30
85458;BME280;75848;42.706;23.292;2024-03-06T05:45:05;94976.16;;;4.67;72.47
85458;BME280;75848;42.706;23.292;2024-03-06T05:47:38;94985.75;;;4.89;71.25
85458;BME280;75848;42.706;23.292;2024-03-06T05:50:12;94986.16;;;4.91;71.93
85458;BME280;75848;42.706;23.292;2024-03-06T05:52:39;94996.13;;;4.91;71.69
85458;BME280;75848;42.706;23.292;2024-03-06T05:55:09;94984.59;;;4.66;72.49
85458;BME280;75848;42.706;23.292;2024-03-06T05:57:43;94994.97;;;4.85;72.67
85458;BME280;75848;42.706;23.292;2024-03-06T06:00:16;94994.59;;;4.79;71.86
85458;BME280;75848;42.706;23.292;2024-03-06T06:02:49;95013.41;;;4.90;72.08
85458;BME280;75848;42.706;23.292;2024-03-06T06:05:15;94989.63;;;4.71;72.67
85458;BME280;75848;42.706;23.292;2024-03-06T06:08:00;95018.00;;;5.03;72.08
85458;BME280;75848;42.706;23.292;2024-03-06T06:10:37;95022.59;;;5.06;72.60
85458;BME280;75848;42.706;23.292;2024-03-06T06:13:07;95012.59;;;5.14;71.80
85458;BME280;75848;42.706;23.292;2024-03-06T06:15:46;95000.69;;;5.15;71.25
85458;BME280;75848;42.706;23.292;2024-03-06T06:18:20;95016.75;;;5.57;70.72
85458;BME280;75848;42.706;23.292;2024-03-06T06:20:51;95021.69;;;5.76;69.99
85458;BME280;75848;42.706;23.292;2024-03-06T06:23:29;95008.25;;;5.65;69.69
85458;BME280;75848;42.706;23.292;2024-03-06T06:25:59;95008.13;;;5.97;68.56
85458;BME280;75848;42.706;23.292;2024-03-06T06:28:40;95013.88;;;6.06;68.46
85458;BME280;75848;42.706;23.292;2024-03-06T06:31:13;94999.56;;;6.16;67.97
85458;BME280;75848;42.706;23.292;2024-03-06T06:33:47;95000.28;;;6.27;68.15
85458;BME280;75848;42.706;23.292;2024-03-06T06:36:18;95006.38;;;6.38;68.05
85458;BME280;75848;42.706;23.292;2024-03-06T06:38:47;94986.72;;;6.41;67.65
85458;BME280;75848;42.706;23.292;2024-03-06T06:41:21;95001.22;;;6.61;66.47
85458;BME280;75848;42.706;23.292;2024-03-06T06:44:04;94992.28;;;6.71;67.13
85458;BME280;75848;42.706;23.292;2024-03-06T06:46:35;95006.22;;;6.63;66.38
85458;BME280;75848;42.706;23.292;2024-03-06T06:52:24;95015.69;;;6.81;66.92
85458;BME280;75848;42.706;23.292;2024-03-06T06:54:54;94999.47;;;6.88;66.24
85458;BME280;75848;42.706;23.292;2024-03-06T06:57:23;95020.97;;;6.95;66.46
85458;BME280;75848;42.706;23.292;2024-03-06T06:59:51;95026.59;;;7.15;67.37
85458;BME280;75848;42.706;23.292;2024-03-06T07:02:24;95021.00;;;7.36;66.59
85458;BME280;75848;42.706;23.292;2024-03-06T07:11:11;95019.78;;;7.77;64.77
85458;BME280;75848;42.706;23.292;2024-03-06T07:53:24;95006.16;;;10.77;55.07
85458;BME280;75848;42.706;23.292;2024-03-06T07:56:14;95010.28;;;10.49;55.72
85458;BME280;75848;42.706;23.292;2024-03-06T08:02:34;95017.50;;;10.72;54.87
85458;BME280;75848;42.706;23.292;2024-03-06T08:05:52;95017.28;;;10.99;55.02
85458;BME280;75848;42.706;23.292;2024-03-06T08:08:35;94994.97;;;11.23;53.23
85458;BME280;75848;42.706;23.292;2024-03-06T08:43:53;95012.97;;;12.85;48.91
85458;BME280;75848;42.706;23.292;2024-03-06T08:46:21;95006.44;;;13.20;48.37
85458;BME280;75848;42.706;23.292;2024-03-06T08:48:52;95021.63;;;12.30;50.62
85458;BME280;75848;42.706;23.292;2024-03-06T09:06:53;95005.25;;;13.68;46.89
85458;BME280;75848;42.706;23.292;2024-03-06T09:09:50;95018.22;;;13.64;46.64
85458;BME280;75848;42.706;23.292;2024-03-06T09:12:31;95009.41;;;13.60;46.53
85458;BME280;75848;42.706;23.292;2024-03-06T09:42:15;95003.84;;;13.63;46.08
85458;BME280;75848;42.706;23.292;2024-03-06T09:44:44;94970.72;;;13.52;46.01
85458;BME280;75848;42.706;23.292;2024-03-06T09:49:46;94989.69;;;14.33;46.03
85458;BME280;75848;42.706;23.292;2024-03-06T09:52:13;94970.81;;;14.78;43.75
85458;BME280;75848;42.706;23.292;2024-03-06T09:54:44;94961.06;;;14.77;42.64
85458;BME280;75848;42.706;23.292;2024-03-06T09:57:10;94974.69;;;14.59;41.94
85458;BME280;75848;42.706;23.292;2024-03-06T09:59:39;94969.06;;;14.32;42.80
85458;BME280;75848;42.706;23.292;2024-03-06T10:02:30;94974.22;;;14.60;42.25
85458;BME280;75848;42.706;23.292;2024-03-06T10:04:56;94967.78;;;14.02;43.24
85458;BME280;75848;42.706;23.292;2024-03-06T10:07:23;94969.56;;;13.96;43.22
85458;BME280;75848;42.706;23.292;2024-03-06T10:10:00;94958.31;;;14.37;42.44
85458;BME280;75848;42.706;23.292;2024-03-06T10:12:46;94969.44;;;14.73;42.06
85458;BME280;75848;42.706;23.292;2024-03-06T10:15:14;94965.94;;;14.42;43.11
85458;BME280;75848;42.706;23.292;2024-03-06T10:21:04;94936.94;;;14.36;42.52
85458;BME280;75848;42.706;23.292;2024-03-06T10:23:36;94940.56;;;14.11;42.67
85458;BME280;75848;42.706;23.292;2024-03-06T10:26:02;94955.31;;;14.44;42.08
85458;BME280;75848;42.706;23.292;2024-03-06T10:28:28;94956.84;;;14.45;41.77
85458;BME280;75848;42.706;23.292;2024-03-06T10:33:31;94931.22;;;14.52;41.64
85458;BME280;75848;42.706;23.292;2024-03-06T10:35:57;94950.31;;;14.21;41.50
85458;BME280;75848;42.706;23.292;2024-03-06T10:38:29;94934.94;;;14.67;41.22
85458;BME280;75848;42.706;23.292;2024-03-06T10:41:01;94938.13;;;14.65;41.26
85458;BME280;75848;42.706;23.292;2024-03-06T10:43:29;94936.63;;;14.34;40.76
85458;BME280;75848;42.706;23.292;2024-03-06T10:46:00;94948.63;;;14.36;42.14
85458;BME280;75848;42.706;23.292;2024-03-06T10:48:47;94942.97;;;14.31;41.81
85458;BME280;75848;42.706;23.292;2024-03-06T10:51:18;94909.19;;;13.85;42.44
85458;BME280;75848;42.706;23.292;2024-03-06T10:53:49;94924.78;;;14.28;42.49
85458;BME280;75848;42.706;23.292;2024-03-06T10:56:17;94914.28;;;14.26;42.65
85458;BME280;75848;42.706;23.292;2024-03-06T10:58:50;94909.31;;;14.64;40.60
85458;BME280;75848;42.706;23.292;2024-03-06T11:01:20;94884.78;;;14.43;41.71
85458;BME280;75848;42.706;23.292;2024-03-06T11:03:46;94882.03;;;14.73;41.25
85458;BME280;75848;42.706;23.292;2024-03-06T11:06:17;94896.63;;;14.98;40.67
85458;BME280;75848;42.706;23.292;2024-03-06T11:08:44;94890.78;;;15.44;40.19
85458;BME280;75848;42.706;23.292;2024-03-06T11:11:23;94891.88;;;15.47;38.67
85458;BME280;75848;42.706;23.292;2024-03-06T11:13:55;94876.28;;;14.89;40.72
85458;BME280;75848;42.706;23.292;2024-03-06T11:16:30;94865.38;;;15.17;40.45
85458;BME280;75848;42.706;23.292;2024-03-06T11:19:08;94874.38;;;15.53;38.04
85458;BME280;75848;42.706;23.292;2024-03-06T11:21:45;94876.84;;;15.42;38.06
85458;BME280;75848;42.706;23.292;2024-03-06T11:26:43;94869.81;;;15.32;36.81
85458;BME280;75848;42.706;23.292;2024-03-06T11:29:17;94857.97;;;15.26;36.71
85458;BME280;75848;42.706;23.292;2024-03-06T11:32:07;94858.38;;;14.79;37.24
85458;BME280;75848;42.706;23.292;2024-03-06T11:34:36;94860.53;;;15.12;37.14
85458;BME280;75848;42.706;23.292;2024-03-06T11:37:07;94842.31;;;15.18;37.29
85458;BME280;75848;42.706;23.292;2024-03-06T11:39:39;94844.72;;;15.07;37.10
85458;BME280;75848;42.706;23.292;2024-03-06T11:42:07;94839.88;;;15.29;36.66
85458;BME280;75848;42.706;23.292;2024-03-06T11:44:37;94852.03;;;15.19;37.29
85458;BME280;75848;42.706;23.292;2024-03-06T11:47:20;94842.66;;;15.56;37.00
85458;BME280;75848;42.706;23.292;2024-03-06T11:49:45;94840.19;;;15.67;35.48
85458;BME280;75848;42.706;23.292;2024-03-06T11:52:12;94841.09;;;15.73;36.38
85458;BME280;75848;42.706;23.292;2024-03-06T11:54:41;94841.78;;;16.00;35.79
85458;BME280;75848;42.706;23.292;2024-03-06T11:57:08;94842.31;;;15.72;35.53
85458;BME280;75848;42.706;23.292;2024-03-06T11:59:37;94830.47;;;15.75;35.14
85458;BME280;75848;42.706;23.292;2024-03-06T12:02:05;94829.72;;;15.56;35.94
85458;BME280;75848;42.706;23.292;2024-03-06T12:04:34;94817.41;;;15.34;36.07
85458;BME280;75848;42.706;23.292;2024-03-06T12:07:03;94825.72;;;15.75;35.09
85458;BME280;75848;42.706;23.292;2024-03-06T12:09:34;94812.38;;;15.77;35.40
85458;BME280;75848;42.706;23.292;2024-03-06T12:12:15;94819.38;;;15.60;35.15
85458;BME280;75848;42.706;23.292;2024-03-06T12:14:41;94813.94;;;15.42;35.21
85458;BME280;75848;42.706;23.292;2024-03-06T12:17:11;94802.69;;;15.49;35.19
85458;BME280;75848;42.706;23.292;2024-03-06T12:19:44;94813.78;;;15.28;34.85
85458;BME280;75848;42.706;23.292;2024-03-06T12:22:12;94808.16;;;15.13;35.94
85458;BME280;75848;42.706;23.292;2024-03-06T12:24:38;94819.34;;;14.70;35.91
85458;BME280;75848;42.706;23.292;2024-03-06T12:27:10;94811.00;;;14.73;36.23
85458;BME280;75848;42.706;23.292;2024-03-06T12:29:35;94814.06;;;14.84;36.78
85458;BME280;75848;42.706;23.292;2024-03-06T12:32:02;94804.78;;;14.73;36.24
85458;BME280;75848;42.706;23.292;2024-03-06T12:34:29;94802.97;;;14.79;36.13
85458;BME280;75848;42.706;23.292;2024-03-06T12:37:10;94809.63;;;14.69;40.47
85458;BME280;75848;42.706;23.292;2024-03-06T12:39:37;94814.75;;;14.18;42.89
85458;BME280;75848;42.706;23.292;2024-03-06T12:42:03;94789.19;;;13.85;43.94
85458;BME280;75848;42.706;23.292;2024-03-06T12:44:29;94809.91;;;13.83;45.11
85458;BME280;75848;42.706;23.292;2024-03-06T12:46:55;94812.41;;;13.68;45.78
85458;BME280;75848;42.706;23.292;2024-03-06T12:49:24;94815.09;;;13.59;46.63
85458;BME280;75848;42.706;23.292;2024-03-06T12:51:51;94823.13;;;13.63;45.88
85458;BME280;75848;42.706;23.292;2024-03-06T12:54:20;94816.38;;;13.46;45.79
85458;BME280;75848;42.706;23.292;2024-03-06T12:56:46;94808.69;;;13.32;44.65
85458;BME280;75848;42.706;23.292;2024-03-06T12:59:12;94817.88;;;13.47;45.05
85458;BME280;75848;42.706;23.292;2024-03-06T13:01:39;94814.47;;;13.86;45.11
85458;BME280;75848;42.706;23.292;2024-03-06T13:04:06;94800.88;;;13.64;44.00
85458;BME280;75848;42.706;23.292;2024-03-06T13:07:00;94822.94;;;13.57;45.19
85458;BME280;75848;42.706;23.292;2024-03-06T13:09:29;94803.53;;;13.77;45.35
85458;BME280;75848;42.706;23.292;2024-03-06T13:11:58;94811.97;;;14.00;44.68
85458;BME280;75848;42.706;23.292;2024-03-06T13:14:23;94821.06;;;13.97;44.05
85458;BME280;75848;42.706;23.292;2024-03-06T13:16:49;94814.72;;;13.79;44.17
85458;BME280;75848;42.706;23.292;2024-03-06T13:19:17;94820.34;;;13.75;43.16
85458;BME280;75848;42.706;23.292;2024-03-06T13:21:43;94820.34;;;13.84;43.67
85458;BME280;75848;42.706;23.292;2024-03-06T13:24:09;94812.50;;;13.86;43.90
85458;BME280;75848;42.706;23.292;2024-03-06T13:26:35;94813.44;;;13.62;44.27
85458;BME280;75848;42.706;23.292;2024-03-06T13:29:03;94814.81;;;13.45;44.35
85458;BME280;75848;42.706;23.292;2024-03-06T13:31:29;94801.09;;;13.48;44.19
85458;BME280;75848;42.706;23.292;2024-03-06T13:34:00;94809.19;;;13.61;44.38
85458;BME280;75848;42.706;23.292;2024-03-06T13:36:27;94810.28;;;13.94;44.58
85458;BME280;75848;42.706;23.292;2024-03-06T13:39:01;94800.13;;;13.94;43.76
85458;BME280;75848;42.706;23.292;2024-03-06T13:41:28;94812.81;;;14.19;43.22
85458;BME280;75848;42.706;23.292;2024-03-06T13:43:56;94816.72;;;14.09;43.11
85458;BME280;75848;42.706;23.292;2024-03-06T13:46:22;94819.84;;;13.68;45.15
85458;BME280;75848;42.706;23.292;2024-03-06T13:48:48;94808.94;;;13.68;45.22
85458;BME280;75848;42.706;23.292;2024-03-06T13:51:14;94818.00;;;13.65;45.90
85458;BME280;75848;42.706;23.292;2024-03-06T13:53:46;94819.88;;;13.77;45.36
85458;BME280;75848;42.706;23.292;2024-03-06T13:56:14;94795.91;;;13.72;45.63
85458;BME280;75848;42.706;23.292;2024-03-06T13:58:43;94814.38;;;13.98;46.09
85458;BME280;75848;42.706;23.292;2024-03-06T14:01:10;94794.19;;;13.56;48.59
85458;BME280;75848;42.706;23.292;2024-03-06T14:03:40;94802.47;;;13.53;47.95
85458;BME280;75848;42.706;23.292;2024-03-06T14:06:07;94796.28;;;13.31;48.17
85458;BME280;75848;42.706;23.292;2024-03-06T14:08:37;94809.53;;;13.41;46.31
85458;BME280;75848;42.706;23.292;2024-03-06T14:11:05;94791.66;;;13.40;46.29
85458;BME280;75848;42.706;23.292;2024-03-06T14:13:33;94785.75;;;13.20;46.44
85458;BME280;75848;42.706;23.292;2024-03-06T14:15:58;94814.56;;;13.30;44.94
85458;BME280;75848;42.706;23.292;2024-03-06T14:18:26;94810.84;;;13.15;45.72
85458;BME280;75848;42.706;23.292;2024-03-06T14:20:51;94808.63;;;13.23;45.48
85458;BME280;75848;42.706;23.292;2024-03-06T14:23:39;94791.56;;;13.10;46.32
85458;BME280;75848;42.706;23.292;2024-03-06T14:26:06;94792.78;;;13.09;47.39
85458;BME280;75848;42.706;23.292;2024-03-06T14:28:37;94816.56;;;13.30;47.95
85458;BME280;75848;42.706;23.292;2024-03-06T14:31:06;94802.28;;;13.04;47.45
85458;BME280;75848;42.706;23.292;2024-03-06T14:33:33;94810.41;;;13.17;47.39
85458;BME280;75848;42.706;23.292;2024-03-06T14:36:00;94800.00;;;13.24;46.80
85458;BME280;75848;42.706;23.292;2024-03-06T14:38:32;94801.06;;;13.05;47.77
85458;BME280;75848;42.706;23.292;2024-03-06T14:41:01;94832.06;;;13.20;47.70
85458;BME280;75848;42.706;23.292;2024-03-06T14:43:27;94826.03;;;13.04;48.80
85458;BME280;75848;42.706;23.292;2024-03-06T14:45:54;94841.88;;;12.83;50.29
85458;BME280;75848;42.706;23.292;2024-03-06T14:48:25;94834.09;;;12.60;51.44
85458;BME280;75848;42.706;23.292;2024-03-06T14:51:09;94829.13;;;12.09;54.23
85458;BME280;75848;42.706;23.292;2024-03-06T14:53:35;94823.47;;;11.78;57.23
85458;BME280;75848;42.706;23.292;2024-03-06T14:56:16;94827.03;;;11.63;59.25
85458;BME280;75848;42.706;23.292;2024-03-06T14:58:48;94828.66;;;11.32;61.16
85458;BME280;75848;42.706;23.292;2024-03-06T15:01:19;94840.47;;;11.25;60.78
85458;BME280;75848;42.706;23.292;2024-03-06T15:04:00;94843.69;;;11.08;62.08
85458;BME280;75848;42.706;23.292;2024-03-06T15:06:27;94832.66;;;10.99;62.82
85458;BME280;75848;42.706;23.292;2024-03-06T15:09:00;94832.38;;;10.81;63.66
85458;BME280;75848;42.706;23.292;2024-03-06T15:11:50;94828.41;;;10.85;62.94
85458;BME280;75848;42.706;23.292;2024-03-06T15:14:21;94820.09;;;10.76;62.19
85458;BME280;75848;42.706;23.292;2024-03-06T15:17:05;94840.97;;;10.79;61.92
85458;BME280;75848;42.706;23.292;2024-03-06T15:19:31;94846.72;;;10.65;62.23
85458;BME280;75848;42.706;23.292;2024-03-06T15:22:00;94857.41;;;10.56;63.17
85458;BME280;75848;42.706;23.292;2024-03-06T15:24:30;94835.53;;;10.47;63.32
85458;BME280;75848;42.706;23.292;2024-03-06T15:27:02;94848.69;;;10.48;64.49
85458;BME280;75848;42.706;23.292;2024-03-06T15:29:28;94859.81;;;10.38;64.29
85458;BME280;75848;42.706;23.292;2024-03-06T15:32:02;94839.97;;;10.25;64.67
85458;BME280;75848;42.706;23.292;2024-03-06T15:34:31;94856.41;;;10.50;63.43
85458;BME280;75848;42.706;23.292;2024-03-06T15:36:58;94860.47;;;10.58;63.52
85458;BME280;75848;42.706;23.292;2024-03-06T15:39:29;94837.50;;;10.30;64.16
85458;BME280;75848;42.706;23.292;2024-03-06T15:41:57;94853.44;;;10.44;64.62
85458;BME280;75848;42.706;23.292;2024-03-06T15:44:24;94850.22;;;10.49;63.90
85458;BME280;75848;42.706;23.292;2024-03-06T15:46:51;94835.72;;;10.56;64.09
85458;BME280;75848;42.706;23.292;2024-03-06T15:49:30;94849.78;;;10.67;62.87
85458;BME280;75848;42.706;23.292;2024-03-06T15:51:56;94833.50;;;10.67;62.70
85458;BME280;75848;42.706;23.292;2024-03-06T15:54:24;94819.84;;;10.54;63.64
85458;BME280;75848;42.706;23.292;2024-03-06T15:56:50;94846.19;;;10.86;62.86
85458;BME280;75848;42.706;23.292;2024-03-06T15:59:16;94837.13;;;10.76;61.15
85458;BME280;75848;42.706;23.292;2024-03-06T16:01:42;94842.41;;;10.84;61.29
85458;BME280;75848;42.706;23.292;2024-03-06T16:04:08;94829.03;;;10.44;61.61
85458;BME280;75848;42.706;23.292;2024-03-06T16:06:35;94843.69;;;10.63;61.37
85458;BME280;75848;42.706;23.292;2024-03-06T16:09:11;94846.88;;;10.74;60.26
85458;BME280;75848;42.706;23.292;2024-03-06T16:11:39;94850.53;;;10.67;61.02
85458;BME280;75848;42.706;23.292;2024-03-06T16:14:06;94840.97;;;10.47;61.66
85458;BME280;75848;42.706;23.292;2024-03-06T16:16:32;94855.97;;;10.67;61.05
85458;BME280;75848;42.706;23.292;2024-03-06T16:18:59;94830.03;;;10.50;61.19
85458;BME280;75848;42.706;23.292;2024-03-06T16:21:27;94845.81;;;10.71;62.08
85458;BME280;75848;42.706;23.292;2024-03-06T16:23:55;94869.78;;;10.89;62.43
85458;BME280;75848;42.706;23.292;2024-03-06T16:26:22;94863.16;;;10.90;62.10
85458;BME280;75848;42.706;23.292;2024-03-06T16:29:14;94860.97;;;10.85;63.15
85458;BME280;75848;42.706;23.292;2024-03-06T16:31:46;94851.41;;;10.64;62.77
85458;BME280;75848;42.706;23.292;2024-03-06T16:37:50;94876.06;;;10.86;63.18
85458;BME280;75848;42.706;23.292;2024-03-06T16:40:36;94850.97;;;10.66;63.66
85458;BME280;75848;42.706;23.292;2024-03-06T16:43:22;94882.09;;;10.77;64.65
85458;BME280;75848;42.706;23.292;2024-03-06T16:45:50;94867.75;;;10.77;63.36
85458;BME280;75848;42.706;23.292;2024-03-06T16:48:17;94879.47;;;10.74;65.26
85458;BME280;75848;42.706;23.292;2024-03-06T16:50:46;94860.47;;;10.58;63.84
85458;BME280;75848;42.706;23.292;2024-03-06T16:53:38;94873.53;;;10.63;63.63
85458;BME280;75848;42.706;23.292;2024-03-06T16:56:04;94888.53;;;10.67;63.89